sensor_id;sensor_type;location;lat;lon;timestamp;P1;durP1;ratioP1;P2;durP2;ratioP2
17566;SDS011;8901;52.088;5.084;2022-10-16T00:00:02;6.27;;;4.30;;
17566;SDS011;8901;52.088;5.084;2022-10-16T00:02:30;4.70;;;3.97;;
17566;SDS011;8901;52.088;5.084;2022-10-16T00:04:56;7.27;;;4.27;;
17566;SDS011;8901;52.088;5.084;2022-10-16T00:07:25;5.60;;;4.00;;
17566;SDS011;8901;52.088;5.084;2022-10-16T00:09:51;4.87;;;4.37;;
17566;SDS011;8901;52.088;5.084;2022-10-16T00:12:18;5.13;;;4.50;;
17566;SDS011;8901;52.088;5.084;2022-10-16T00:14:45;4.30;;;3.90;;
17566;SDS011;8901;52.088;5.084;2022-10-16T00:17:12;4.60;;;4.17;;
17566;SDS011;8901;52.088;5.084;2022-10-16T00:19:39;6.07;;;4.17;;
17566;SDS011;8901;52.088;5.084;2022-10-16T00:22:06;4.87;;;4.37;;
17566;SDS011;8901;52.088;5.084;2022-10-16T00:24:34;4.20;;;3.83;;
17566;SDS011;8901;52.088;5.084;2022-10-16T00:27:01;4.83;;;3.97;;
17566;SDS011;8901;52.088;5.084;2022-10-16T00:29:28;5.53;;;4.20;;
17566;SDS011;8901;52.088;5.084;2022-10-16T00:31:54;4.57;;;3.80;;
17566;SDS011;8901;52.088;5.084;2022-10-16T00:34:21;4.63;;;3.70;;
17566;SDS011;8901;52.088;5.084;2022-10-16T00:36:48;6.17;;;4.20;;
17566;SDS011;8901;52.088;5.084;2022-10-16T00:39:15;4.43;;;4.03;;
17566;SDS011;8901;52.088;5.084;2022-10-16T00:41:43;4.80;;;3.70;;
17566;SDS011;8901;52.088;5.084;2022-10-16T00:47:09;5.33;;;4.07;;
17566;SDS011;8901;52.088;5.084;2022-10-16T00:49:38;4.97;;;4.20;;
17566;SDS011;8901;52.088;5.084;2022-10-16T00:52:05;4.57;;;3.80;;
17566;SDS011;8901;52.088;5.084;2022-10-16T00:54:32;4.53;;;4.10;;
17566;SDS011;8901;52.088;5.084;2022-10-16T00:57:02;4.70;;;4.30;;
17566;SDS011;8901;52.088;5.084;2022-10-16T00:59:32;4.50;;;4.10;;
17566;SDS011;8901;52.088;5.084;2022-10-16T01:02:01;8.23;;;4.00;;
17566;SDS011;8901;52.088;5.084;2022-10-16T01:04:30;6.17;;;4.10;;
17566;SDS011;8901;52.088;5.084;2022-10-16T01:07:02;6.63;;;4.10;;
17566;SDS011;8901;52.088;5.084;2022-10-16T01:09:37;4.60;;;4.20;;
17566;SDS011;8901;52.088;5.084;2022-10-16T01:12:15;7.03;;;4.60;;
17566;SDS011;8901;52.088;5.084;2022-10-16T01:14:52;5.50;;;3.90;;
17566;SDS011;8901;52.088;5.084;2022-10-16T01:17:22;4.40;;;3.93;;
17566;SDS011;8901;52.088;5.084;2022-10-16T01:19:59;4.60;;;4.13;;
17566;SDS011;8901;52.088;5.084;2022-10-16T01:22:33;4.80;;;4.47;;
17566;SDS011;8901;52.088;5.084;2022-10-16T01:28:36;8.30;;;4.60;;
17566;SDS011;8901;52.088;5.084;2022-10-16T01:36:53;5.00;;;4.60;;
17566;SDS011;8901;52.088;5.084;2022-10-16T01:39:30;4.60;;;4.03;;
17566;SDS011;8901;52.088;5.084;2022-10-16T01:42:01;5.90;;;4.40;;
17566;SDS011;8901;52.088;5.084;2022-10-16T01:44:45;4.97;;;4.43;;
17566;SDS011;8901;52.088;5.084;2022-10-16T01:50:37;7.60;;;4.57;;
17566;SDS011;8901;52.088;5.084;2022-10-16T01:53:12;5.97;;;4.13;;
17566;SDS011;8901;52.088;5.084;2022-10-16T01:55:49;5.70;;;4.50;;
17566;SDS011;8901;52.088;5.084;2022-10-16T01:58:25;5.27;;;4.40;;
17566;SDS011;8901;52.088;5.084;2022-10-16T02:09:44;6.33;;;5.67;;
17566;SDS011;8901;52.088;5.084;2022-10-16T02:12:13;17.50;;;12.63;;
17566;SDS011;8901;52.088;5.084;2022-10-16T02:17:32;5.80;;;4.87;;
17566;SDS011;8901;52.088;5.084;2022-10-16T02:19:59;4.70;;;4.30;;
17566;SDS011;8901;52.088;5.084;2022-10-16T02:22:27;5.77;;;4.30;;
17566;SDS011;8901;52.088;5.084;2022-10-16T02:24:56;5.50;;;4.07;;
17566;SDS011;8901;52.088;5.084;2022-10-16T02:27:26;4.90;;;4.40;;
17566;SDS011;8901;52.088;5.084;2022-10-16T02:30:00;4.60;;;4.20;;
17566;SDS011;8901;52.088;5.084;2022-10-16T02:32:34;5.37;;;4.20;;
17566;SDS011;8901;52.088;5.084;2022-10-16T02:35:04;4.80;;;4.40;;
17566;SDS011;8901;52.088;5.084;2022-10-16T02:37:32;5.07;;;4.57;;
17566;SDS011;8901;52.088;5.084;2022-10-16T02:39:59;4.30;;;3.90;;
17566;SDS011;8901;52.088;5.084;2022-10-16T02:42:28;5.30;;;4.43;;
17566;SDS011;8901;52.088;5.084;2022-10-16T02:44:55;4.50;;;4.10;;
17566;SDS011;8901;52.088;5.084;2022-10-16T02:47:22;4.67;;;4.27;;
17566;SDS011;8901;52.088;5.084;2022-10-16T02:49:51;4.50;;;4.17;;
17566;SDS011;8901;52.088;5.084;2022-10-16T02:52:17;6.43;;;4.50;;
17566;SDS011;8901;52.088;5.084;2022-10-16T02:54:58;4.67;;;4.23;;
17566;SDS011;8901;52.088;5.084;2022-10-16T02:57:25;6.47;;;4.60;;
17566;SDS011;8901;52.088;5.084;2022-10-16T02:59:52;4.90;;;4.30;;
17566;SDS011;8901;52.088;5.084;2022-10-16T03:02:18;9.90;;;4.03;;
17566;SDS011;8901;52.088;5.084;2022-10-16T03:04:46;6.43;;;4.77;;
17566;SDS011;8901;52.088;5.084;2022-10-16T03:07:14;4.40;;;3.90;;
17566;SDS011;8901;52.088;5.084;2022-10-16T03:09:41;6.20;;;4.00;;
17566;SDS011;8901;52.088;5.084;2022-10-16T03:12:08;5.77;;;4.13;;
17566;SDS011;8901;52.088;5.084;2022-10-16T03:14:36;4.03;;;3.73;;
17566;SDS011;8901;52.088;5.084;2022-10-16T03:17:04;4.60;;;3.93;;
17566;SDS011;8901;52.088;5.084;2022-10-16T03:19:31;4.50;;;4.10;;
17566;SDS011;8901;52.088;5.084;2022-10-16T03:21:58;7.67;;;4.20;;
17566;SDS011;8901;52.088;5.084;2022-10-16T03:24:27;4.07;;;3.67;;
17566;SDS011;8901;52.088;5.084;2022-10-16T03:26:53;5.17;;;3.80;;
17566;SDS011;8901;52.088;5.084;2022-10-16T03:29:20;4.13;;;3.83;;
17566;SDS011;8901;52.088;5.084;2022-10-16T03:31:47;4.37;;;4.07;;
17566;SDS011;8901;52.088;5.084;2022-10-16T03:34:14;4.97;;;4.47;;
17566;SDS011;8901;52.088;5.084;2022-10-16T03:36:41;4.77;;;4.37;;
17566;SDS011;8901;52.088;5.084;2022-10-16T03:39:08;5.87;;;4.20;;
17566;SDS011;8901;52.088;5.084;2022-10-16T03:41:36;4.10;;;3.80;;
17566;SDS011;8901;52.088;5.084;2022-10-16T03:44:03;4.20;;;3.80;;
17566;SDS011;8901;52.088;5.084;2022-10-16T03:46:30;3.90;;;3.60;;
17566;SDS011;8901;52.088;5.084;2022-10-16T03:48:57;5.83;;;4.10;;
17566;SDS011;8901;52.088;5.084;2022-10-16T03:51:24;3.90;;;3.60;;
17566;SDS011;8901;52.088;5.084;2022-10-16T03:53:51;3.63;;;3.33;;
17566;SDS011;8901;52.088;5.084;2022-10-16T03:56:18;3.70;;;3.40;;
17566;SDS011;8901;52.088;5.084;2022-10-16T03:58:46;4.30;;;3.90;;
17566;SDS011;8901;52.088;5.084;2022-10-16T04:01:13;3.80;;;3.50;;
17566;SDS011;8901;52.088;5.084;2022-10-16T04:03:40;5.80;;;3.80;;
17566;SDS011;8901;52.088;5.084;2022-10-16T04:06:06;4.30;;;3.97;;
17566;SDS011;8901;52.088;5.084;2022-10-16T04:08:33;4.77;;;3.80;;
17566;SDS011;8901;52.088;5.084;2022-10-16T04:21:09;3.90;;;3.60;;
17566;SDS011;8901;52.088;5.084;2022-10-16T04:23:36;3.87;;;3.57;;
17566;SDS011;8901;52.088;5.084;2022-10-16T04:26:02;7.60;;;4.17;;
17566;SDS011;8901;52.088;5.084;2022-10-16T04:28:29;4.30;;;4.00;;
17566;SDS011;8901;52.088;5.084;2022-10-16T04:30:56;3.70;;;3.40;;
17566;SDS011;8901;52.088;5.084;2022-10-16T04:33:23;3.97;;;3.67;;
17566;SDS011;8901;52.088;5.084;2022-10-16T04:35:55;4.10;;;3.80;;
17566;SDS011;8901;52.088;5.084;2022-10-16T04:38:24;4.03;;;3.73;;
17566;SDS011;8901;52.088;5.084;2022-10-16T04:40:51;4.30;;;3.90;;
17566;SDS011;8901;52.088;5.084;2022-10-16T04:43:18;4.37;;;3.70;;
17566;SDS011;8901;52.088;5.084;2022-10-16T04:45:46;3.93;;;3.50;;
17566;SDS011;8901;52.088;5.084;2022-10-16T04:48:12;3.90;;;3.60;;
17566;SDS011;8901;52.088;5.084;2022-10-16T04:50:39;3.70;;;3.50;;
17566;SDS011;8901;52.088;5.084;2022-10-16T04:53:07;3.80;;;3.50;;
17566;SDS011;8901;52.088;5.084;2022-10-16T04:55:36;4.40;;;3.70;;
17566;SDS011;8901;52.088;5.084;2022-10-16T04:58:03;3.87;;;3.57;;
17566;SDS011;8901;52.088;5.084;2022-10-16T05:00:30;4.10;;;3.70;;
17566;SDS011;8901;52.088;5.084;2022-10-16T05:02:57;4.90;;;3.83;;
17566;SDS011;8901;52.088;5.084;2022-10-16T05:05:25;4.00;;;3.70;;
17566;SDS011;8901;52.088;5.084;2022-10-16T05:07:52;4.40;;;4.10;;
17566;SDS011;8901;52.088;5.084;2022-10-16T05:10:19;5.53;;;4.20;;
17566;SDS011;8901;52.088;5.084;2022-10-16T05:12:48;4.40;;;4.00;;
17566;SDS011;8901;52.088;5.084;2022-10-16T05:15:16;4.13;;;3.83;;
17566;SDS011;8901;52.088;5.084;2022-10-16T05:17:43;4.30;;;3.90;;
17566;SDS011;8901;52.088;5.084;2022-10-16T05:20:10;4.40;;;4.00;;
17566;SDS011;8901;52.088;5.084;2022-10-16T05:22:38;4.20;;;3.90;;
17566;SDS011;8901;52.088;5.084;2022-10-16T05:25:05;6.00;;;4.53;;
17566;SDS011;8901;52.088;5.084;2022-10-16T05:27:32;7.20;;;4.10;;
17566;SDS011;8901;52.088;5.084;2022-10-16T05:30:00;4.20;;;3.90;;
17566;SDS011;8901;52.088;5.084;2022-10-16T05:32:27;4.20;;;3.80;;
17566;SDS011;8901;52.088;5.084;2022-10-16T05:34:54;4.53;;;3.80;;
17566;SDS011;8901;52.088;5.084;2022-10-16T05:37:21;4.07;;;3.67;;
17566;SDS011;8901;52.088;5.084;2022-10-16T05:39:48;4.30;;;3.90;;
17566;SDS011;8901;52.088;5.084;2022-10-16T05:42:15;4.30;;;3.90;;
17566;SDS011;8901;52.088;5.084;2022-10-16T05:44:41;3.87;;;3.40;;
17566;SDS011;8901;52.088;5.084;2022-10-16T05:47:10;4.10;;;3.80;;
17566;SDS011;8901;52.088;5.084;2022-10-16T05:49:40;4.63;;;3.90;;
17566;SDS011;8901;52.088;5.084;2022-10-16T05:52:07;5.70;;;3.70;;
17566;SDS011;8901;52.088;5.084;2022-10-16T05:54:33;4.33;;;3.90;;
17566;SDS011;8901;52.088;5.084;2022-10-16T05:57:00;4.73;;;4.27;;
17566;SDS011;8901;52.088;5.084;2022-10-16T05:59:27;5.10;;;3.93;;
17566;SDS011;8901;52.088;5.084;2022-10-16T06:01:54;4.27;;;3.97;;
17566;SDS011;8901;52.088;5.084;2022-10-16T06:04:22;4.43;;;4.00;;
17566;SDS011;8901;52.088;5.084;2022-10-16T06:06:49;6.03;;;4.10;;
17566;SDS011;8901;52.088;5.084;2022-10-16T06:09:16;4.57;;;3.90;;
17566;SDS011;8901;52.088;5.084;2022-10-16T06:14:30;4.03;;;3.63;;
17566;SDS011;8901;52.088;5.084;2022-10-16T06:17:06;5.13;;;4.10;;
17566;SDS011;8901;52.088;5.084;2022-10-16T06:19:35;9.27;;;3.97;;
17566;SDS011;8901;52.088;5.084;2022-10-16T06:22:02;7.77;;;4.57;;
17566;SDS011;8901;52.088;5.084;2022-10-16T06:24:29;4.70;;;4.30;;
17566;SDS011;8901;52.088;5.084;2022-10-16T06:26:56;4.63;;;4.23;;
17566;SDS011;8901;52.088;5.084;2022-10-16T06:29:23;4.20;;;3.90;;
17566;SDS011;8901;52.088;5.084;2022-10-16T06:31:50;4.40;;;4.00;;
17566;SDS011;8901;52.088;5.084;2022-10-16T06:34:17;5.77;;;3.80;;
17566;SDS011;8901;52.088;5.084;2022-10-16T06:36:46;6.63;;;3.97;;
17566;SDS011;8901;52.088;5.084;2022-10-16T06:39:13;4.20;;;3.80;;
17566;SDS011;8901;52.088;5.084;2022-10-16T06:41:39;4.03;;;3.73;;
17566;SDS011;8901;52.088;5.084;2022-10-16T06:44:07;3.90;;;3.57;;
17566;SDS011;8901;52.088;5.084;2022-10-16T06:46:34;4.00;;;3.60;;
17566;SDS011;8901;52.088;5.084;2022-10-16T06:49:01;4.70;;;3.80;;
17566;SDS011;8901;52.088;5.084;2022-10-16T06:51:27;3.90;;;3.57;;
17566;SDS011;8901;52.088;5.084;2022-10-16T06:53:57;3.73;;;3.43;;
17566;SDS011;8901;52.088;5.084;2022-10-16T06:56:25;5.47;;;3.80;;
17566;SDS011;8901;52.088;5.084;2022-10-16T06:58:54;3.50;;;3.13;;
17566;SDS011;8901;52.088;5.084;2022-10-16T07:01:23;4.87;;;3.40;;
17566;SDS011;8901;52.088;5.084;2022-10-16T07:03:50;5.77;;;3.70;;
17566;SDS011;8901;52.088;5.084;2022-10-16T07:06:18;6.03;;;3.67;;
17566;SDS011;8901;52.088;5.084;2022-10-16T07:08:46;4.63;;;3.30;;
17566;SDS011;8901;52.088;5.084;2022-10-16T07:11:15;5.30;;;3.87;;
17566;SDS011;8901;52.088;5.084;2022-10-16T07:13:44;5.83;;;3.70;;
17566;SDS011;8901;52.088;5.084;2022-10-16T07:16:12;5.07;;;3.53;;
17566;SDS011;8901;52.088;5.084;2022-10-16T07:18:40;4.33;;;3.93;;
17566;SDS011;8901;52.088;5.084;2022-10-16T07:21:10;4.63;;;3.50;;
17566;SDS011;8901;52.088;5.084;2022-10-16T07:23:39;8.47;;;3.70;;
17566;SDS011;8901;52.088;5.084;2022-10-16T07:26:06;6.83;;;3.43;;
17566;SDS011;8901;52.088;5.084;2022-10-16T07:28:34;3.73;;;3.37;;
17566;SDS011;8901;52.088;5.084;2022-10-16T07:31:02;3.53;;;3.10;;
17566;SDS011;8901;52.088;5.084;2022-10-16T07:33:29;3.73;;;3.23;;
17566;SDS011;8901;52.088;5.084;2022-10-16T07:35:56;4.47;;;3.40;;
17566;SDS011;8901;52.088;5.084;2022-10-16T07:38:23;3.57;;;3.27;;
17566;SDS011;8901;52.088;5.084;2022-10-16T07:40:55;4.57;;;3.77;;
17566;SDS011;8901;52.088;5.084;2022-10-16T07:43:23;3.63;;;3.33;;
17566;SDS011;8901;52.088;5.084;2022-10-16T07:45:51;4.63;;;3.70;;
17566;SDS011;8901;52.088;5.084;2022-10-16T07:48:18;5.40;;;3.50;;
17566;SDS011;8901;52.088;5.084;2022-10-16T07:50:45;5.90;;;3.70;;
17566;SDS011;8901;52.088;5.084;2022-10-16T07:53:12;5.63;;;3.70;;
17566;SDS011;8901;52.088;5.084;2022-10-16T07:55:39;5.77;;;4.10;;
17566;SDS011;8901;52.088;5.084;2022-10-16T07:58:06;5.20;;;3.67;;
17566;SDS011;8901;52.088;5.084;2022-10-16T08:00:33;4.83;;;3.70;;
17566;SDS011;8901;52.088;5.084;2022-10-16T08:03:03;8.80;;;4.30;;
17566;SDS011;8901;52.088;5.084;2022-10-16T08:05:31;5.63;;;4.27;;
17566;SDS011;8901;52.088;5.084;2022-10-16T08:07:59;4.97;;;3.90;;
17566;SDS011;8901;52.088;5.084;2022-10-16T08:10:27;5.57;;;4.00;;
17566;SDS011;8901;52.088;5.084;2022-10-16T08:13:00;4.83;;;3.53;;
17566;SDS011;8901;52.088;5.084;2022-10-16T08:15:34;6.57;;;3.50;;
17566;SDS011;8901;52.088;5.084;2022-10-16T08:18:35;8.20;;;4.17;;
17566;SDS011;8901;52.088;5.084;2022-10-16T08:21:15;7.77;;;3.57;;
17566;SDS011;8901;52.088;5.084;2022-10-16T08:23:49;6.80;;;3.57;;
17566;SDS011;8901;52.088;5.084;2022-10-16T08:26:26;3.80;;;3.30;;
17566;SDS011;8901;52.088;5.084;2022-10-16T08:28:54;4.83;;;3.40;;
17566;SDS011;8901;52.088;5.084;2022-10-16T08:31:21;6.23;;;3.60;;
17566;SDS011;8901;52.088;5.084;2022-10-16T08:33:50;7.23;;;3.80;;
17566;SDS011;8901;52.088;5.084;2022-10-16T08:36:17;5.90;;;3.33;;
17566;SDS011;8901;52.088;5.084;2022-10-16T08:38:46;4.90;;;3.50;;
17566;SDS011;8901;52.088;5.084;2022-10-16T08:41:17;7.13;;;3.90;;
17566;SDS011;8901;52.088;5.084;2022-10-16T08:44:05;6.63;;;3.50;;
17566;SDS011;8901;52.088;5.084;2022-10-16T08:46:51;6.73;;;4.20;;
17566;SDS011;8901;52.088;5.084;2022-10-16T08:49:27;6.00;;;3.60;;
17566;SDS011;8901;52.088;5.084;2022-10-16T08:51:55;5.73;;;3.70;;
17566;SDS011;8901;52.088;5.084;2022-10-16T08:54:25;5.20;;;3.47;;
17566;SDS011;8901;52.088;5.084;2022-10-16T08:56:55;6.63;;;3.57;;
17566;SDS011;8901;52.088;5.084;2022-10-16T08:59:22;6.17;;;3.73;;
17566;SDS011;8901;52.088;5.084;2022-10-16T09:01:50;3.80;;;3.20;;
17566;SDS011;8901;52.088;5.084;2022-10-16T09:04:34;5.80;;;3.60;;
17566;SDS011;8901;52.088;5.084;2022-10-16T09:07:15;8.37;;;3.90;;
17566;SDS011;8901;52.088;5.084;2022-10-16T09:09:53;5.20;;;3.80;;
17566;SDS011;8901;52.088;5.084;2022-10-16T09:12:39;6.17;;;4.07;;
17566;SDS011;8901;52.088;5.084;2022-10-16T09:15:16;8.20;;;3.80;;
17566;SDS011;8901;52.088;5.084;2022-10-16T09:17:52;5.73;;;3.67;;
17566;SDS011;8901;52.088;5.084;2022-10-16T09:20:37;6.10;;;4.23;;
17566;SDS011;8901;52.088;5.084;2022-10-16T09:23:12;5.73;;;3.80;;
17566;SDS011;8901;52.088;5.084;2022-10-16T09:25:43;6.57;;;4.00;;
17566;SDS011;8901;52.088;5.084;2022-10-16T09:28:13;4.63;;;3.47;;
17566;SDS011;8901;52.088;5.084;2022-10-16T09:30:39;5.63;;;3.57;;
17566;SDS011;8901;52.088;5.084;2022-10-16T09:33:07;4.93;;;3.90;;
17566;SDS011;8901;52.088;5.084;2022-10-16T09:35:38;6.47;;;4.00;;
17566;SDS011;8901;52.088;5.084;2022-10-16T09:38:06;10.37;;;4.20;;
17566;SDS011;8901;52.088;5.084;2022-10-16T09:40:48;6.63;;;3.90;;
17566;SDS011;8901;52.088;5.084;2022-10-16T09:46:27;7.37;;;3.80;;
17566;SDS011;8901;52.088;5.084;2022-10-16T09:48:56;8.40;;;4.13;;
17566;SDS011;8901;52.088;5.084;2022-10-16T09:51:26;8.23;;;4.27;;
17566;SDS011;8901;52.088;5.084;2022-10-16T09:53:55;8.40;;;4.37;;
17566;SDS011;8901;52.088;5.084;2022-10-16T09:56:24;7.87;;;4.23;;
17566;SDS011;8901;52.088;5.084;2022-10-16T09:58:53;7.77;;;4.13;;
17566;SDS011;8901;52.088;5.084;2022-10-16T10:01:21;7.13;;;4.50;;
17566;SDS011;8901;52.088;5.084;2022-10-16T10:03:55;7.70;;;3.97;;
17566;SDS011;8901;52.088;5.084;2022-10-16T10:06:28;10.50;;;4.20;;
17566;SDS011;8901;52.088;5.084;2022-10-16T10:08:58;8.90;;;4.60;;
17566;SDS011;8901;52.088;5.084;2022-10-16T10:11:37;8.20;;;4.23;;
17566;SDS011;8901;52.088;5.084;2022-10-16T10:14:15;6.83;;;4.17;;
17566;SDS011;8901;52.088;5.084;2022-10-16T10:17:01;12.10;;;5.37;;
17566;SDS011;8901;52.088;5.084;2022-10-16T10:19:39;7.27;;;4.63;;
17566;SDS011;8901;52.088;5.084;2022-10-16T10:22:19;8.70;;;4.20;;
17566;SDS011;8901;52.088;5.084;2022-10-16T10:24:54;7.57;;;4.37;;
17566;SDS011;8901;52.088;5.084;2022-10-16T10:27:24;8.70;;;4.43;;
17566;SDS011;8901;52.088;5.084;2022-10-16T10:29:58;7.63;;;4.27;;
17566;SDS011;8901;52.088;5.084;2022-10-16T10:32:34;6.47;;;4.30;;
17566;SDS011;8901;52.088;5.084;2022-10-16T10:35:14;12.30;;;4.77;;
17566;SDS011;8901;52.088;5.084;2022-10-16T10:38:02;8.50;;;4.33;;
17566;SDS011;8901;52.088;5.084;2022-10-16T10:40:40;12.63;;;5.07;;
17566;SDS011;8901;52.088;5.084;2022-10-16T10:43:18;8.80;;;4.10;;
17566;SDS011;8901;52.088;5.084;2022-10-16T10:45:57;8.30;;;4.50;;
17566;SDS011;8901;52.088;5.084;2022-10-16T10:48:44;7.10;;;4.13;;
17566;SDS011;8901;52.088;5.084;2022-10-16T10:51:20;6.47;;;4.17;;
17566;SDS011;8901;52.088;5.084;2022-10-16T10:53:54;9.13;;;4.73;;
17566;SDS011;8901;52.088;5.084;2022-10-16T10:56:34;9.93;;;4.90;;
17566;SDS011;8901;52.088;5.084;2022-10-16T10:59:13;9.23;;;5.37;;
17566;SDS011;8901;52.088;5.084;2022-10-16T11:02:01;7.43;;;4.50;;
17566;SDS011;8901;52.088;5.084;2022-10-16T11:04:44;7.27;;;4.80;;
17566;SDS011;8901;52.088;5.084;2022-10-16T11:07:32;15.03;;;5.80;;
17566;SDS011;8901;52.088;5.084;2022-10-16T11:10:04;10.67;;;4.50;;
17566;SDS011;8901;52.088;5.084;2022-10-16T11:12:41;9.87;;;4.50;;
17566;SDS011;8901;52.088;5.084;2022-10-16T11:15:12;7.87;;;4.50;;
17566;SDS011;8901;52.088;5.084;2022-10-16T11:17:42;12.40;;;4.80;;
17566;SDS011;8901;52.088;5.084;2022-10-16T11:20:13;8.87;;;4.03;;
17566;SDS011;8901;52.088;5.084;2022-10-16T11:22:45;7.70;;;4.47;;
17566;SDS011;8901;52.088;5.084;2022-10-16T11:25:18;9.17;;;4.83;;
17566;SDS011;8901;52.088;5.084;2022-10-16T11:27:49;7.57;;;4.03;;
17566;SDS011;8901;52.088;5.084;2022-10-16T11:30:22;8.23;;;4.90;;
17566;SDS011;8901;52.088;5.084;2022-10-16T11:33:04;7.57;;;4.67;;
17566;SDS011;8901;52.088;5.084;2022-10-16T11:35:48;9.70;;;4.40;;
17566;SDS011;8901;52.088;5.084;2022-10-16T11:38:24;8.57;;;4.30;;
17566;SDS011;8901;52.088;5.084;2022-10-16T11:41:10;9.27;;;5.10;;
17566;SDS011;8901;52.088;5.084;2022-10-16T11:43:45;8.03;;;4.60;;
17566;SDS011;8901;52.088;5.084;2022-10-16T11:46:20;8.40;;;4.27;;
17566;SDS011;8901;52.088;5.084;2022-10-16T11:48:51;7.67;;;5.37;;
17566;SDS011;8901;52.088;5.084;2022-10-16T11:51:25;13.27;;;5.23;;
17566;SDS011;8901;52.088;5.084;2022-10-16T11:54:01;8.67;;;4.80;;
17566;SDS011;8901;52.088;5.084;2022-10-16T11:56:37;10.57;;;4.53;;
17566;SDS011;8901;52.088;5.084;2022-10-16T11:59:07;6.50;;;4.70;;
17566;SDS011;8901;52.088;5.084;2022-10-16T12:01:43;7.07;;;5.37;;
17566;SDS011;8901;52.088;5.084;2022-10-16T12:04:15;7.50;;;4.63;;
17566;SDS011;8901;52.088;5.084;2022-10-16T12:06:53;7.83;;;4.80;;
17566;SDS011;8901;52.088;5.084;2022-10-16T12:09:27;9.73;;;5.20;;
17566;SDS011;8901;52.088;5.084;2022-10-16T12:11:59;10.07;;;5.83;;
17566;SDS011;8901;52.088;5.084;2022-10-16T12:14:33;6.57;;;4.67;;
17566;SDS011;8901;52.088;5.084;2022-10-16T12:17:03;9.20;;;5.50;;
17566;SDS011;8901;52.088;5.084;2022-10-16T12:19:56;7.43;;;4.83;;
17566;SDS011;8901;52.088;5.084;2022-10-16T12:25:21;7.10;;;5.47;;
17566;SDS011;8901;52.088;5.084;2022-10-16T12:27:59;11.63;;;5.23;;
17566;SDS011;8901;52.088;5.084;2022-10-16T12:30:29;12.07;;;5.73;;
17566;SDS011;8901;52.088;5.084;2022-10-16T12:33:04;12.03;;;5.13;;
17566;SDS011;8901;52.088;5.084;2022-10-16T12:35:50;17.60;;;5.77;;
17566;SDS011;8901;52.088;5.084;2022-10-16T12:38:21;10.73;;;5.77;;
17566;SDS011;8901;52.088;5.084;2022-10-16T12:40:58;5.13;;;4.63;;
17566;SDS011;8901;52.088;5.084;2022-10-16T12:43:34;12.93;;;5.10;;
17566;SDS011;8901;52.088;5.084;2022-10-16T12:46:04;10.87;;;5.30;;
17566;SDS011;8901;52.088;5.084;2022-10-16T12:48:48;10.73;;;5.20;;
17566;SDS011;8901;52.088;5.084;2022-10-16T12:51:22;9.93;;;5.90;;
17566;SDS011;8901;52.088;5.084;2022-10-16T12:54:00;9.60;;;5.03;;
17566;SDS011;8901;52.088;5.084;2022-10-16T12:56:31;9.23;;;5.40;;
17566;SDS011;8901;52.088;5.084;2022-10-16T12:59:12;7.00;;;5.07;;
17566;SDS011;8901;52.088;5.084;2022-10-16T13:02:01;8.30;;;5.37;;
17566;SDS011;8901;52.088;5.084;2022-10-16T13:10:52;12.90;;;5.70;;
17566;SDS011;8901;52.088;5.084;2022-10-16T13:16:37;10.77;;;5.80;;
17566;SDS011;8901;52.088;5.084;2022-10-16T13:19:16;7.13;;;5.10;;
17566;SDS011;8901;52.088;5.084;2022-10-16T13:21:54;8.73;;;6.30;;
17566;SDS011;8901;52.088;5.084;2022-10-16T13:33:34;9.30;;;6.07;;
17566;SDS011;8901;52.088;5.084;2022-10-16T13:39:27;8.97;;;6.60;;
17566;SDS011;8901;52.088;5.084;2022-10-16T13:45:18;12.93;;;7.10;;
17566;SDS011;8901;52.088;5.084;2022-10-16T13:48:04;10.27;;;7.50;;
17566;SDS011;8901;52.088;5.084;2022-10-16T13:54:10;10.70;;;7.90;;
17566;SDS011;8901;52.088;5.084;2022-10-16T13:56:45;9.87;;;7.67;;
17566;SDS011;8901;52.088;5.084;2022-10-16T13:59:25;12.27;;;8.40;;
17566;SDS011;8901;52.088;5.084;2022-10-16T14:01:54;11.33;;;8.70;;
17566;SDS011;8901;52.088;5.084;2022-10-16T14:04:34;12.40;;;8.97;;
17566;SDS011;8901;52.088;5.084;2022-10-16T14:07:11;11.13;;;8.33;;
17566;SDS011;8901;52.088;5.084;2022-10-16T14:15:15;10.33;;;9.33;;
17566;SDS011;8901;52.088;5.084;2022-10-16T14:21:02;11.53;;;10.43;;
17566;SDS011;8901;52.088;5.084;2022-10-16T14:30:03;14.07;;;12.60;;
17566;SDS011;8901;52.088;5.084;2022-10-16T14:36:00;15.63;;;13.97;;
17566;SDS011;8901;52.088;5.084;2022-10-16T14:38:29;15.43;;;13.87;;
17566;SDS011;8901;52.088;5.084;2022-10-16T14:41:00;14.30;;;13.10;;
17566;SDS011;8901;52.088;5.084;2022-10-16T14:43:29;16.43;;;14.10;;
17566;SDS011;8901;52.088;5.084;2022-10-16T14:46:01;16.43;;;14.83;;
17566;SDS011;8901;52.088;5.084;2022-10-16T14:48:40;15.63;;;14.33;;
17566;SDS011;8901;52.088;5.084;2022-10-16T14:51:08;16.10;;;14.60;;
17566;SDS011;8901;52.088;5.084;2022-10-16T14:53:39;14.73;;;13.30;;
17566;SDS011;8901;52.088;5.084;2022-10-16T14:56:06;14.43;;;13.13;;
17566;SDS011;8901;52.088;5.084;2022-10-16T14:58:34;14.47;;;13.03;;
17566;SDS011;8901;52.088;5.084;2022-10-16T15:01:03;14.10;;;12.90;;
17566;SDS011;8901;52.088;5.084;2022-10-16T15:03:31;13.97;;;12.73;;
17566;SDS011;8901;52.088;5.084;2022-10-16T15:05:58;14.73;;;12.87;;
17566;SDS011;8901;52.088;5.084;2022-10-16T15:08:25;14.07;;;12.57;;
17566;SDS011;8901;52.088;5.084;2022-10-16T15:10:52;13.90;;;12.23;;
17566;SDS011;8901;52.088;5.084;2022-10-16T15:13:19;13.00;;;11.70;;
17566;SDS011;8901;52.088;5.084;2022-10-16T15:15:47;13.57;;;12.10;;
17566;SDS011;8901;52.088;5.084;2022-10-16T15:18:16;14.73;;;12.50;;
17566;SDS011;8901;52.088;5.084;2022-10-16T15:20:45;13.90;;;12.43;;
17566;SDS011;8901;52.088;5.084;2022-10-16T15:23:16;15.33;;;12.50;;
17566;SDS011;8901;52.088;5.084;2022-10-16T15:25:45;12.87;;;11.77;;
17566;SDS011;8901;52.088;5.084;2022-10-16T15:28:13;15.57;;;11.47;;
17566;SDS011;8901;52.088;5.084;2022-10-16T15:30:41;15.03;;;12.60;;
17566;SDS011;8901;52.088;5.084;2022-10-16T15:33:22;12.77;;;11.37;;
17566;SDS011;8901;52.088;5.084;2022-10-16T15:35:52;12.17;;;10.83;;
17566;SDS011;8901;52.088;5.084;2022-10-16T15:38:20;12.80;;;11.50;;
17566;SDS011;8901;52.088;5.084;2022-10-16T15:40:48;16.40;;;12.83;;
17566;SDS011;8901;52.088;5.084;2022-10-16T15:46:23;12.53;;;10.77;;
17566;SDS011;8901;52.088;5.084;2022-10-16T15:48:51;11.97;;;10.77;;
17566;SDS011;8901;52.088;5.084;2022-10-16T15:51:23;14.27;;;10.53;;
17566;SDS011;8901;52.088;5.084;2022-10-16T15:53:52;11.47;;;10.27;;
17566;SDS011;8901;52.088;5.084;2022-10-16T15:56:19;13.27;;;10.43;;
17566;SDS011;8901;52.088;5.084;2022-10-16T15:58:47;11.90;;;10.00;;
17566;SDS011;8901;52.088;5.084;2022-10-16T16:01:14;13.90;;;10.77;;
17566;SDS011;8901;52.088;5.084;2022-10-16T16:03:41;14.77;;;10.07;;
17566;SDS011;8901;52.088;5.084;2022-10-16T16:06:11;13.10;;;9.63;;
17566;SDS011;8901;52.088;5.084;2022-10-16T16:08:39;12.47;;;9.07;;
17566;SDS011;8901;52.088;5.084;2022-10-16T16:11:07;19.63;;;10.07;;
17566;SDS011;8901;52.088;5.084;2022-10-16T16:13:49;16.03;;;9.73;;
17566;SDS011;8901;52.088;5.084;2022-10-16T16:16:16;14.03;;;10.23;;
17566;SDS011;8901;52.088;5.084;2022-10-16T16:18:45;15.50;;;9.30;;
17566;SDS011;8901;52.088;5.084;2022-10-16T16:21:15;14.60;;;8.83;;
17566;SDS011;8901;52.088;5.084;2022-10-16T16:23:42;11.80;;;7.00;;
17566;SDS011;8901;52.088;5.084;2022-10-16T16:26:10;11.40;;;6.77;;
17566;SDS011;8901;52.088;5.084;2022-10-16T16:28:38;18.40;;;7.30;;
17566;SDS011;8901;52.088;5.084;2022-10-16T16:31:06;15.37;;;7.17;;
17566;SDS011;8901;52.088;5.084;2022-10-16T16:33:33;10.23;;;6.43;;
17566;SDS011;8901;52.088;5.084;2022-10-16T16:36:01;12.57;;;7.70;;
17566;SDS011;8901;52.088;5.084;2022-10-16T16:38:32;12.57;;;7.20;;
17566;SDS011;8901;52.088;5.084;2022-10-16T16:41:17;11.77;;;7.73;;
17566;SDS011;8901;52.088;5.084;2022-10-16T16:43:45;14.30;;;7.40;;
17566;SDS011;8901;52.088;5.084;2022-10-16T16:46:13;14.37;;;7.90;;
17566;SDS011;8901;52.088;5.084;2022-10-16T16:48:43;15.93;;;7.57;;
17566;SDS011;8901;52.088;5.084;2022-10-16T16:51:21;17.63;;;8.60;;
17566;SDS011;8901;52.088;5.084;2022-10-16T17:04:47;16.33;;;9.33;;